Time;durP1;ratioP1;P1;durP2;ratioP2;P2;SDS_P1;SDS_P2;PMS_P1;PMS_P2;Temp;Humidity;BMP_temperature;BMP_pressure;BME280_temperature;BME280_humidity;BME280_pressure;Samples;Min_cycle;Max_cycle;Signal;HPM_P1;HPM_P2
2021/07/24 00:02:04;;;;;;;9.77;6.67;;;14.30;99.90;;;;;;5039571;28;20212;-43
2021/07/24 00:04:32;;;;;;;8.73;7.23;;;14.30;99.90;;;;;;5042860;28;20199;-43
2021/07/24 00:07:00;;;;;;;10.30;7.27;;;14.30;99.90;;;;;;5043459;28;20923;-44
2021/07/24 00:09:26;;;;;;;9.87;6.80;;;14.30;99.90;;;;;;5043886;28;20560;-42
2021/07/24 00:11:53;;;;;;;9.00;6.70;;;14.30;99.90;;;;;;5042168;28;20203;-42
2021/07/24 00:14:19;;;;;;;11.00;7.50;;;14.30;99.90;;;;;;5031069;28;20577;-43
2021/07/24 00:16:46;;;;;;;8.70;7.13;;;14.20;99.90;;;;;;5040325;28;20187;-42
2021/07/24 00:19:13;;;;;;;8.97;7.10;;;14.30;99.90;;;;;;5040046;28;20207;-42
2021/07/24 00:21:40;;;;;;;8.43;6.77;;;14.30;99.90;;;;;;5041379;28;20206;-43
2021/07/24 00:24:07;;;;;;;9.67;7.33;;;14.30;99.90;;;;;;5044439;28;20195;-42
2021/07/24 00:26:34;;;;;;;7.43;6.67;;;14.20;99.90;;;;;;5041538;28;20230;-42
2021/07/24 00:29:05;;;;;;;9.93;7.20;;;14.20;99.90;;;;;;5042815;28;20202;-46
2021/07/24 00:31:32;;;;;;;9.43;7.00;;;14.20;99.90;;;;;;5028512;28;20218;-42
2021/07/24 00:33:59;;;;;;;7.97;7.17;;;14.20;99.90;;;;;;5036731;28;20223;-42
2021/07/24 00:36:25;;;;;;;10.27;7.70;;;14.10;99.90;;;;;;5043843;28;20694;-42
2021/07/24 00:38:53;;;;;;;8.30;7.33;;;14.10;99.90;;;;;;5040886;28;20191;-43
2021/07/24 00:41:26;;;;;;;8.90;6.97;;;14.10;99.90;;;;;;5044154;28;20203;-42
2021/07/24 00:43:53;;;;;;;9.03;7.13;;;14.20;99.90;;;;;;5040087;28;20837;-42
2021/07/24 00:46:22;;;;;;;8.60;7.17;;;14.10;99.90;;;;;;5029910;28;20696;-43
2021/07/24 00:48:52;;;;;;;7.60;6.30;;;14.10;99.90;;;;;;5034553;28;20197;-42
2021/07/24 00:51:31;;;;;;;7.83;6.97;;;14.10;99.90;;;;;;5041005;28;20195;-43
2021/07/24 00:54:02;;;;;;;7.90;6.93;;;14.10;99.90;;;;;;5042221;28;20211;-43
2021/07/24 00:56:29;;;;;;;8.97;6.37;;;14.20;99.90;;;;;;5042391;28;20719;-42
2021/07/24 00:58:57;;;;;;;8.50;7.10;;;14.10;99.90;;;;;;5040715;28;20229;-42
2021/07/24 01:01:25;;;;;;;7.80;7.00;;;14.10;99.90;;;;;;5043289;28;20202;-42
2021/07/24 01:03:52;;;;;;;8.80;6.63;;;14.10;99.90;;;;;;5024914;28;20192;-42
2021/07/24 01:06:18;;;;;;;13.37;7.23;;;14.10;99.90;;;;;;5043529;28;20219;-41
2021/07/24 01:08:47;;;;;;;7.83;6.63;;;14.10;99.90;;;;;;5038347;28;20198;-43
2021/07/24 01:11:16;;;;;;;6.93;6.23;;;14.10;99.90;;;;;;5042331;28;20537;-42
2021/07/24 01:13:44;;;;;;;7.70;6.27;;;14.20;99.90;;;;;;5039596;28;20218;-44
2021/07/24 01:16:12;;;;;;;10.33;6.73;;;14.10;99.90;;;;;;5044204;28;20688;-43
2021/07/24 01:18:41;;;;;;;7.70;6.90;;;14.10;99.90;;;;;;5020856;28;20213;-42
2021/07/24 01:21:22;;;;;;;8.30;5.97;;;14.10;99.90;;;;;;5052437;28;20210;-43
2021/07/24 01:23:51;;;;;;;8.37;6.03;;;14.10;99.90;;;;;;5040517;28;20195;-41
2021/07/24 01:26:24;;;;;;;8.90;6.77;;;14.10;99.90;;;;;;5043736;28;20301;-43
2021/07/24 01:28:51;;;;;;;8.37;6.87;;;14.10;99.90;;;;;;5053130;28;20218;-42
2021/07/24 01:31:18;;;;;;;8.17;6.63;;;14.10;99.90;;;;;;5043386;28;20192;-42
2021/07/24 01:33:45;;;;;;;7.67;6.43;;;14.10;99.90;;;;;;5025130;28;20215;-46
2021/07/24 01:36:13;;;;;;;8.87;6.17;;;14.00;99.90;;;;;;5037773;28;20235;-42
2021/07/24 01:38:42;;;;;;;8.30;6.73;;;14.00;99.90;;;;;;5038254;28;20199;-43
2021/07/24 01:41:14;;;;;;;9.33;6.73;;;14.00;99.90;;;;;;5043630;28;20674;-42
2021/07/24 01:43:42;;;;;;;8.50;7.47;;;14.00;99.90;;;;;;5045855;28;20226;-42
2021/07/24 01:46:10;;;;;;;7.57;6.77;;;14.00;99.90;;;;;;5060213;28;20253;-43
2021/07/24 01:49:11;;;;;;;7.60;6.77;;;13.90;99.90;;;;;;5039031;28;20237;-42
2021/07/24 01:54:43;;;;;;;8.90;6.40;;;13.90;99.90;;;;;;5019839;28;20281;-42
2021/07/24 01:57:12;;;;;;;7.90;6.27;;;13.90;99.90;;;;;;5042910;28;20202;-44
2021/07/24 01:59:51;;;;;;;8.80;6.63;;;13.80;99.90;;;;;;5042925;28;20211;-42
2021/07/24 02:02:19;;;;;;;7.83;6.73;;;13.80;99.90;;;;;;5042104;28;20195;-45
2021/07/24 02:04:50;;;;;;;8.30;7.10;;;13.80;99.90;;;;;;5031736;28;20211;-42
2021/07/24 02:07:20;;;;;;;7.63;6.53;;;13.90;99.90;;;;;;5037119;28;20195;-43
2021/07/24 02:09:52;;;;;;;8.40;7.07;;;13.80;99.90;;;;;;5045544;28;20196;-42
2021/07/24 02:12:28;;;;;;;9.40;6.10;;;13.90;99.90;;;;;;5043665;28;20191;-43
2021/07/24 02:14:57;;;;;;;8.63;7.00;;;13.80;99.90;;;;;;5046556;28;20219;-43
2021/07/24 02:17:31;;;;;;;8.27;5.93;;;13.70;99.90;;;;;;5043716;28;20909;-43
2021/07/24 02:20:01;;;;;;;7.70;6.40;;;13.70;99.90;;;;;;5031862;28;20238;-42
2021/07/24 02:22:28;;;;;;;7.70;6.97;;;13.70;99.90;;;;;;5039091;28;20204;-42
2021/07/24 02:24:59;;;;;;;7.63;6.23;;;13.70;99.90;;;;;;5044812;28;20215;-43
2021/07/24 02:27:26;;;;;;;7.47;5.90;;;13.70;99.90;;;;;;5041802;28;20881;-43
2021/07/24 02:29:54;;;;;;;7.33;6.30;;;13.70;99.90;;;;;;5045015;28;20592;-42
2021/07/24 02:32:23;;;;;;;7.40;6.27;;;13.70;99.90;;;;;;5043003;28;20894;-42
2021/07/24 02:34:50;;;;;;;7.07;6.37;;;13.70;99.90;;;;;;5045397;28;20278;-42
2021/07/24 02:37:17;;;;;;;7.97;6.00;;;13.70;99.90;;;;;;5024053;28;20920;-42
2021/07/24 02:39:43;;;;;;;7.20;6.50;;;13.60;99.90;;;;;;5046410;28;20282;-43
2021/07/24 02:42:14;;;;;;;7.93;7.07;;;13.60;99.90;;;;;;5042950;28;20712;-42
2021/07/24 02:44:43;;;;;;;7.10;6.40;;;13.60;99.90;;;;;;5046476;28;20277;-45
2021/07/24 02:47:10;;;;;;;7.50;6.70;;;13.50;99.90;;;;;;5043349;28;20202;-44
2021/07/24 02:49:39;;;;;;;9.50;7.00;;;13.50;99.90;;;;;;5044011;28;20191;-43
2021/07/24 02:52:07;;;;;;;7.67;6.93;;;13.50;99.90;;;;;;5028149;28;20242;-42
2021/07/24 02:54:35;;;;;;;8.60;7.50;;;13.50;99.90;;;;;;5044018;28;20211;-42
2021/07/24 02:57:03;;;;;;;8.53;7.30;;;13.50;99.90;;;;;;5044310;28;20645;-43
2021/07/24 02:59:31;;;;;;;8.67;6.40;;;13.40;99.90;;;;;;5042898;28;20199;-42
2021/07/24 03:01:58;;;;;;;9.30;7.40;;;13.40;99.90;;;;;;5044397;28;20229;-44
2021/07/24 03:04:25;;;;;;;9.83;7.07;;;13.40;99.90;;;;;;5042747;28;20187;-42
2021/07/24 03:06:51;;;;;;;7.43;6.67;;;13.40;99.90;;;;;;5031208;28;20329;-42
2021/07/24 03:09:18;;;;;;;8.93;6.70;;;13.40;99.90;;;;;;5037455;28;20199;-42
2021/07/24 03:11:45;;;;;;;9.77;6.80;;;13.40;99.90;;;;;;5045847;28;20675;-43
2021/07/24 03:14:12;;;;;;;8.33;6.77;;;13.40;99.90;;;;;;5042342;28;20223;-42
2021/07/24 03:16:39;;;;;;;8.70;6.87;;;13.40;99.90;;;;;;5045588;28;20215;-42
2021/07/24 03:19:06;;;;;;;7.57;6.50;;;13.40;99.90;;;;;;5043068;28;20402;-42
2021/07/24 03:21:33;;;;;;;8.23;6.20;;;13.40;99.90;;;;;;5030865;28;20211;-42
2021/07/24 03:23:59;;;;;;;8.43;6.80;;;13.40;99.90;;;;;;5040351;28;20660;-42
2021/07/24 03:26:26;;;;;;;10.53;8.10;;;13.30;99.90;;;;;;5042961;28;20210;-43
2021/07/24 03:28:53;;;;;;;8.93;6.63;;;13.40;99.90;;;;;;5045289;28;20277;-43
2021/07/24 03:31:19;;;;;;;11.00;7.43;;;13.30;99.90;;;;;;5035704;28;20191;-42
2021/07/24 03:33:47;;;;;;;10.90;7.83;;;13.30;99.90;;;;;;5045450;28;20415;-42
2021/07/24 03:36:14;;;;;;;9.13;7.00;;;13.30;99.90;;;;;;5041497;28;20235;-42
2021/07/24 03:38:41;;;;;;;8.93;6.70;;;13.40;99.90;;;;;;5027178;28;20207;-45
2021/07/24 03:41:07;;;;;;;8.73;6.47;;;13.30;99.90;;;;;;5042604;28;20200;-42
2021/07/24 03:43:34;;;;;;;9.53;6.87;;;13.40;99.90;;;;;;5044584;28;20189;-42
2021/07/24 03:46:01;;;;;;;9.03;7.50;;;13.40;99.90;;;;;;5043522;28;20218;-42
2021/07/24 03:48:27;;;;;;;10.20;7.07;;;13.40;99.90;;;;;;5042625;28;20194;-42
2021/07/24 03:50:55;;;;;;;11.20;7.67;;;13.40;99.90;;;;;;5042421;28;20202;-42
2021/07/24 03:53:22;;;;;;;9.53;7.17;;;13.40;99.90;;;;;;5023376;28;20302;-43
2021/07/24 03:55:51;;;;;;;8.30;6.50;;;13.40;99.90;;;;;;5044890;28;20704;-43
2021/07/24 03:58:18;;;;;;;9.33;7.33;;;13.40;99.90;;;;;;5041199;28;20183;-43
2021/07/24 04:00:47;;;;;;;7.80;6.90;;;13.40;99.90;;;;;;5044451;28;20195;-41
2021/07/24 04:03:14;;;;;;;9.23;6.13;;;13.40;99.90;;;;;;5040673;28;20607;-43
2021/07/24 04:05:44;;;;;;;8.87;7.00;;;13.40;99.90;;;;;;5044932;28;20211;-42
2021/07/24 04:08:13;;;;;;;10.03;7.27;;;13.40;99.90;;;;;;5030350;28;20195;-42
2021/07/24 04:10:41;;;;;;;8.80;7.10;;;13.40;99.90;;;;;;5038378;28;20211;-42
2021/07/24 04:13:07;;;;;;;7.43;6.07;;;13.50;99.90;;;;;;5042146;28;20191;-42
2021/07/24 04:15:36;;;;;;;12.73;8.13;;;13.50;99.90;;;;;;5043419;28;20219;-42
2021/07/24 04:18:03;;;;;;;8.47;6.17;;;13.50;99.90;;;;;;5042668;28;20195;-42
2021/07/24 04:20:29;;;;;;;9.57;7.53;;;13.60;99.90;;;;;;5042304;28;20191;-43
2021/07/24 04:22:56;;;;;;;11.93;7.80;;;13.60;99.90;;;;;;5044108;28;20750;-42
2021/07/24 04:25:24;;;;;;;8.77;7.70;;;13.60;99.90;;;;;;5027305;28;20219;-44
2021/07/24 04:27:51;;;;;;;7.57;6.33;;;13.70;99.90;;;;;;5044097;28;20668;-43
2021/07/24 04:30:17;;;;;;;9.50;7.43;;;13.70;99.90;;;;;;5039985;28;20203;-43
2021/07/24 04:32:44;;;;;;;9.93;6.80;;;13.70;99.90;;;;;;5044543;28;20269;-42
2021/07/24 04:35:11;;;;;;;10.80;7.50;;;13.70;99.90;;;;;;5040467;28;20215;-43
2021/07/24 04:37:38;;;;;;;8.57;6.63;;;13.70;99.90;;;;;;5042722;28;20199;-43
2021/07/24 04:40:06;;;;;;;9.10;7.20;;;13.70;99.90;;;;;;5034403;28;20555;-42
2021/07/24 04:42:34;;;;;;;9.33;7.97;;;13.70;99.90;;;;;;5038260;28;20206;-42
2021/07/24 04:45:01;;;;;;;11.73;7.83;;;13.80;99.90;;;;;;5042719;28;20218;-42
2021/07/24 04:47:27;;;;;;;11.53;7.70;;;13.90;99.90;;;;;;5041757;28;20184;-43
2021/07/24 04:49:54;;;;;;;10.60;7.17;;;13.90;99.90;;;;;;5042659;28;20200;-43
2021/07/24 04:52:22;;;;;;;9.63;7.50;;;14.00;99.90;;;;;;5039272;28;20975;-43
2021/07/24 04:54:49;;;;;;;10.83;6.90;;;14.00;99.90;;;;;;5043849;28;20763;-42
2021/07/24 04:57:17;;;;;;;10.17;7.10;;;14.10;99.90;;;;;;5024830;28;20204;-46
2021/07/24 04:59:47;;;;;;;8.80;7.43;;;14.10;99.90;;;;;;5043536;28;20271;-42
2021/07/24 05:02:15;;;;;;;8.63;6.90;;;14.20;99.90;;;;;;5039705;28;20195;-42
2021/07/24 05:04:42;;;;;;;8.03;6.90;;;14.20;99.90;;;;;;5043756;28;20299;-43
2021/07/24 05:07:09;;;;;;;11.53;6.90;;;14.30;99.90;;;;;;5041337;28;20540;-43
2021/07/24 05:09:35;;;;;;;7.43;6.33;;;14.30;99.90;;;;;;5042796;28;20274;-43
2021/07/24 05:12:02;;;;;;;9.33;6.67;;;14.30;99.90;;;;;;5028390;28;20215;-42
2021/07/24 05:14:29;;;;;;;9.60;7.20;;;14.40;99.90;;;;;;5041262;28;20304;-42
2021/07/24 05:17:05;;;;;;;11.10;6.67;;;14.40;99.90;;;;;;5043602;28;20200;-44
2021/07/24 05:19:32;;;;;;;8.03;7.00;;;14.50;99.90;;;;;;5041848;28;20946;-42
2021/07/24 05:21:59;;;;;;;7.17;6.47;;;14.50;99.90;;;;;;5042532;28;20216;-41
2021/07/24 05:24:26;;;;;;;9.13;7.33;;;14.60;99.90;;;;;;5040903;28;20809;-43
2021/07/24 05:26:52;;;;;;;5.83;5.33;;;14.60;99.90;;;;;;5029887;28;20218;-43
2021/07/24 05:29:19;;;;;;;9.37;7.00;;;14.70;99.90;;;;;;5038468;28;20468;-44
2021/07/24 05:31:46;;;;;;;8.90;6.50;;;14.70;99.90;;;;;;5043159;28;20195;-43
2021/07/24 05:34:14;;;;;;;9.30;6.63;;;14.70;99.90;;;;;;5039638;28;20222;-42
2021/07/24 05:36:40;;;;;;;9.07;6.73;;;14.80;99.90;;;;;;5043544;28;20191;-42
2021/07/24 05:39:07;;;;;;;9.17;6.37;;;14.90;99.90;;;;;;5040719;28;20190;-43
2021/07/24 05:41:34;;;;;;;9.83;6.60;;;14.90;99.90;;;;;;5027082;28;20215;-43
2021/07/24 05:44:00;;;;;;;7.07;6.33;;;15.00;99.90;;;;;;5040603;28;20564;-44
2021/07/24 05:46:27;;;;;;;8.20;6.33;;;15.00;99.90;;;;;;5033953;28;20219;-43
2021/07/24 05:48:54;;;;;;;7.47;6.67;;;15.10;99.90;;;;;;5039328;28;20661;-42
2021/07/24 05:51:22;;;;;;;7.10;5.60;;;15.20;99.90;;;;;;5036103;28;20196;-43
2021/07/24 05:53:49;;;;;;;8.27;6.20;;;15.20;99.90;;;;;;5031969;28;20191;-42
2021/07/24 05:56:15;;;;;;;11.00;6.87;;;15.20;99.90;;;;;;5029953;28;20934;-43
2021/07/24 05:58:42;;;;;;;8.67;6.63;;;15.30;99.90;;;;;;5024962;28;20218;-42
2021/07/24 06:01:10;;;;;;;7.97;6.60;;;15.40;99.90;;;;;;5034376;28;20226;-43
2021/07/24 06:03:36;;;;;;;8.13;6.73;;;15.50;99.90;;;;;;5042020;28;20264;-46
2021/07/24 06:06:03;;;;;;;10.60;7.33;;;15.60;99.90;;;;;;5034367;28;20207;-45
2021/07/24 06:08:31;;;;;;;8.80;6.73;;;15.70;99.90;;;;;;5042610;28;20199;-44
2021/07/24 06:10:59;;;;;;;8.00;6.73;;;15.80;99.90;;;;;;5032052;28;20715;-44
2021/07/24 06:13:25;;;;;;;8.47;7.13;;;15.90;99.90;;;;;;5027733;28;20660;-45
2021/07/24 06:15:52;;;;;;;12.17;8.53;;;16.00;99.90;;;;;;5039365;28;20220;-45
2021/07/24 06:18:19;;;;;;;10.03;6.97;;;16.10;99.90;;;;;;5042048;28;20195;-43
2021/07/24 06:20:47;;;;;;;8.57;6.37;;;16.20;99.90;;;;;;5040755;28;20195;-47
2021/07/24 06:23:15;;;;;;;8.43;6.50;;;16.20;99.90;;;;;;5036932;28;20891;-45
2021/07/24 06:25:43;;;;;;;11.23;7.17;;;16.30;99.90;;;;;;5041605;28;20285;-45
2021/07/24 06:28:10;;;;;;;9.83;7.40;;;16.40;99.90;;;;;;5033713;28;20199;-46
2021/07/24 06:30:36;;;;;;;11.13;7.27;;;16.50;99.90;;;;;;5028620;28;20202;-43
2021/07/24 06:33:03;;;;;;;7.90;7.10;;;16.60;99.90;;;;;;5037897;28;20192;-44
2021/07/24 06:35:30;;;;;;;9.13;7.03;;;16.60;99.90;;;;;;5042444;28;20230;-45
2021/07/24 06:37:56;;;;;;;8.23;7.00;;;16.80;99.90;;;;;;5035032;28;20198;-45
2021/07/24 06:40:23;;;;;;;11.27;6.93;;;16.90;99.90;;;;;;5042376;28;20202;-43
2021/07/24 06:42:52;;;;;;;10.47;7.70;;;17.00;99.90;;;;;;5043456;28;20191;-43
2021/07/24 06:45:18;;;;;;;6.83;6.13;;;17.00;99.90;;;;;;5030715;28;20234;-43
2021/07/24 06:47:45;;;;;;;9.63;6.77;;;17.10;99.90;;;;;;5044670;28;20195;-44
2021/07/24 06:50:13;;;;;;;7.17;6.43;;;17.20;99.90;;;;;;5042995;28;20200;-43
2021/07/24 06:52:40;;;;;;;7.63;6.83;;;17.30;99.90;;;;;;5045741;28;20210;-43
2021/07/24 06:55:08;;;;;;;8.40;6.40;;;17.40;99.90;;;;;;5038145;28;20219;-44
2021/07/24 06:57:35;;;;;;;8.00;6.23;;;17.50;99.90;;;;;;5044748;28;20195;-45
2021/07/24 07:00:03;;;;;;;9.63;6.50;;;17.50;99.90;;;;;;5027307;28;24584;-42
2021/07/24 07:02:30;;;;;;;7.93;5.50;;;17.60;99.90;;;;;;5044566;28;20199;-45
2021/07/24 07:04:56;;;;;;;5.97;5.37;;;17.70;99.90;;;;;;5041793;28;20214;-43
2021/07/24 07:07:23;;;;;;;8.93;5.90;;;17.80;99.90;;;;;;5045491;28;20213;-44
2021/07/24 07:09:50;;;;;;;6.70;5.17;;;17.90;99.90;;;;;;5039440;28;20206;-43
2021/07/24 07:12:17;;;;;;;5.27;4.87;;;17.90;99.90;;;;;;5044569;28;20190;-42
2021/07/24 07:14:43;;;;;;;7.50;5.00;;;17.90;99.90;;;;;;5041709;28;20234;-42
2021/07/24 07:17:11;;;;;;;6.63;5.20;;;18.00;99.90;;;;;;5027679;28;20214;-43
2021/07/24 07:19:39;;;;;;;7.47;4.87;;;18.10;99.90;;;;;;5040990;28;20204;-42
2021/07/24 07:22:06;;;;;;;7.50;5.63;;;18.20;99.90;;;;;;5041604;28;20873;-41
2021/07/24 07:24:33;;;;;;;7.30;4.67;;;18.30;99.90;;;;;;5041703;28;20201;-42
2021/07/24 07:27:00;;;;;;;5.70;4.70;;;18.40;99.90;;;;;;5040732;28;20195;-46
2021/07/24 07:29:26;;;;;;;6.70;4.73;;;18.50;99.90;;;;;;5044470;28;20207;-44
2021/07/24 07:31:53;;;;;;;8.13;4.93;;;18.50;99.90;;;;;;5032029;28;20657;-46
2021/07/24 07:34:21;;;;;;;10.30;4.80;;;18.60;99.90;;;;;;5037129;28;20200;-43
2021/07/24 07:36:48;;;;;;;7.17;5.07;;;18.60;99.90;;;;;;5037933;28;20218;-45
2021/07/24 07:39:15;;;;;;;4.77;4.37;;;18.70;99.90;;;;;;5038831;28;20211;-45
2021/07/24 07:41:42;;;;;;;5.03;4.20;;;18.70;99.90;;;;;;5044651;28;20196;-46
2021/07/24 07:44:08;;;;;;;6.20;5.00;;;18.80;99.90;;;;;;5041263;28;20709;-43
2021/07/24 07:46:35;;;;;;;6.30;4.50;;;18.90;99.90;;;;;;5044898;28;20203;-45
2021/07/24 07:49:01;;;;;;;6.50;4.60;;;19.00;99.90;;;;;;5026867;28;20211;-45
2021/07/24 07:51:29;;;;;;;6.03;4.47;;;19.00;99.90;;;;;;5040543;28;20206;-46
2021/07/24 07:53:56;;;;;;;4.47;4.00;;;19.20;99.90;;;;;;5041181;28;20665;-45
2021/07/24 07:56:22;;;;;;;6.40;4.10;;;19.30;99.90;;;;;;5040720;28;20227;-45
2021/07/24 07:58:49;;;;;;;7.53;4.40;;;19.30;99.90;;;;;;5042353;28;20270;-44
2021/07/24 08:01:16;;;;;;;6.53;4.77;;;19.40;99.90;;;;;;5041505;28;20286;-44
2021/07/24 08:03:42;;;;;;;5.43;4.10;;;19.50;99.90;;;;;;5040155;28;20199;-42
2021/07/24 08:06:09;;;;;;;6.00;4.27;;;19.60;99.90;;;;;;5026691;28;20998;-43
2021/07/24 08:08:37;;;;;;;4.50;4.07;;;19.70;99.90;;;;;;5044546;28;20195;-43
2021/07/24 08:11:04;;;;;;;5.97;5.37;;;19.80;99.90;;;;;;5036514;28;20192;-42
2021/07/24 08:13:31;;;;;;;9.07;5.30;;;19.90;99.90;;;;;;5044471;28;20672;-43
2021/07/24 08:15:58;;;;;;;7.67;5.30;;;20.00;99.90;;;;;;5040299;28;20880;-43
2021/07/24 08:18:24;;;;;;;5.97;4.80;;;20.10;99.90;;;;;;5042708;28;20199;-43
2021/07/24 08:20:51;;;;;;;7.07;3.93;;;20.20;99.90;;;;;;5020605;28;20218;-46
2021/07/24 08:23:17;;;;;;;6.30;4.57;;;20.30;99.90;;;;;;5041089;28;20192;-46
2021/07/24 08:25:46;;;;;;;6.17;4.73;;;20.30;99.90;;;;;;5043088;28;20199;-43
2021/07/24 08:28:13;;;;;;;5.47;4.27;;;20.30;99.90;;;;;;5038387;28;20206;-43
2021/07/24 08:30:40;;;;;;;5.13;4.63;;;20.40;99.90;;;;;;5038554;28;20206;-45
2021/07/24 08:33:06;;;;;;;6.17;4.73;;;20.40;99.90;;;;;;5039350;28;20202;-42
2021/07/24 08:35:33;;;;;;;9.60;5.40;;;20.50;99.90;;;;;;5028605;28;20595;-46
2021/07/24 08:38:00;;;;;;;5.27;4.70;;;20.60;99.90;;;;;;5035767;28;20206;-42
2021/07/24 08:40:26;;;;;;;4.77;4.13;;;20.70;99.90;;;;;;5043586;28;20209;-45
2021/07/24 08:42:54;;;;;;;6.47;4.10;;;20.80;99.90;;;;;;5037262;28;20675;-48
2021/07/24 08:45:21;;;;;;;7.30;4.50;;;20.80;99.90;;;;;;5037956;28;20226;-44
2021/07/24 08:47:48;;;;;;;7.13;4.13;;;20.90;99.90;;;;;;5041636;28;20196;-44
2021/07/24 08:50:17;;;;;;;9.53;5.00;;;21.00;99.90;;;;;;5028065;28;21877;-43
2021/07/24 08:52:53;;;;;;;6.93;4.30;;;21.10;99.90;;;;;;5042582;28;20701;-44
2021/07/24 08:55:22;;;;;;;8.33;5.07;;;21.20;99.90;;;;;;5041676;28;20615;-44
2021/07/24 08:57:51;;;;;;;8.93;4.90;;;21.30;99.90;;;;;;5037376;28;20206;-45
2021/07/24 09:00:21;;;;;;;10.07;4.63;;;21.40;99.90;;;;;;5038202;28;20192;-47
2021/07/24 09:02:48;;;;;;;7.13;4.77;;;21.40;99.90;;;;;;5041087;28;20207;-46
2021/07/24 09:05:17;;;;;;;5.60;4.40;;;21.40;99.90;;;;;;5040294;28;20213;-42
2021/07/24 09:07:46;;;;;;;6.90;5.03;;;21.40;99.90;;;;;;5027771;28;20204;-45
2021/07/24 09:10:13;;;;;;;5.37;4.87;;;21.60;99.90;;;;;;5036984;28;20192;-44
2021/07/24 09:12:42;;;;;;;5.87;4.90;;;21.70;99.90;;;;;;5038005;28;20206;-44
2021/07/24 09:15:11;;;;;;;5.03;4.00;;;21.80;99.90;;;;;;5039609;28;20199;-43
2021/07/24 09:17:39;;;;;;;4.97;4.47;;;21.80;99.90;;;;;;5043521;28;20204;-47
2021/07/24 09:20:07;;;;;;;5.53;4.53;;;21.90;99.90;;;;;;5039164;28;20206;-46
2021/07/24 09:22:35;;;;;;;4.03;3.73;;;21.90;99.90;;;;;;5025188;28;20228;-46
2021/07/24 09:25:08;;;;;;;5.90;4.30;;;22.00;99.90;;;;;;5027473;28;20215;-44
2021/07/24 09:27:35;;;;;;;5.15;4.28;;;22.10;99.90;;;;;;5040399;28;20673;-43
2021/07/24 09:30:03;;;;;;;7.53;4.07;;;22.20;99.90;;;;;;5034134;28;20202;-48
2021/07/24 09:32:30;;;;;;;4.45;4.07;;;22.20;99.90;;;;;;5041438;28;20206;-45
2021/07/24 09:34:58;;;;;;;5.18;4.35;;;22.20;99.90;;;;;;5026326;28;20276;-46
2021/07/24 09:37:26;;;;;;;5.50;4.40;;;22.20;99.90;;;;;;5028384;28;20568;-44
2021/07/24 09:39:54;;;;;;;6.53;5.07;;;22.20;99.90;;;;;;5037917;28;20676;-44
2021/07/24 09:42:21;;;;;;;6.40;4.40;;;22.30;99.90;;;;;;5041953;28;20203;-42
2021/07/24 09:44:48;;;;;;;5.13;4.15;;;22.30;99.90;;;;;;5036544;28;20227;-46
2021/07/24 09:47:29;;;;;;;4.80;3.88;;;22.40;99.90;;;;;;5040203;28;20191;-46
2021/07/24 09:50:09;;;;;;;5.95;3.80;;;22.40;99.90;;;;;;5039261;28;21552;-46
2021/07/24 09:52:45;;;;;;;4.50;3.90;;;22.40;99.90;;;;;;5030213;28;20203;-43
2021/07/24 09:55:21;;;;;;;4.55;4.15;;;22.40;99.90;;;;;;5030566;28;20253;-44
2021/07/24 09:57:48;;;;;;;4.70;4.00;;;22.50;99.90;;;;;;5033363;28;20202;-49
2021/07/24 10:00:28;;;;;;;4.00;3.65;;;22.50;99.90;;;;;;5032345;28;20187;-44
2021/07/24 10:03:03;;;;;;;4.47;4.07;;;22.50;99.90;;;;;;5033411;28;20195;-45
2021/07/24 10:05:35;;;;;;;5.38;4.32;;;22.50;99.90;;;;;;5041095;28;20215;-46
2021/07/24 10:08:04;;;;;;;6.35;4.00;;;22.50;99.90;;;;;;5023645;28;20211;-43
2021/07/24 10:10:34;;;;;;;6.18;3.95;;;22.60;99.90;;;;;;5039955;28;20208;-46
2021/07/24 10:13:02;;;;;;;4.82;3.85;;;22.70;99.90;;;;;;5033908;28;20195;-43
2021/07/24 10:15:35;;;;;;;4.38;3.78;;;22.70;99.90;;;;;;5041480;28;20250;-49
2021/07/24 10:18:02;;;;;;;6.38;4.20;;;22.90;99.90;;;;;;5034981;28;20905;-48
2021/07/24 10:20:30;;;;;;;4.75;3.67;;;23.00;99.90;;;;;;5041747;28;20211;-46
2021/07/24 10:22:58;;;;;;;5.35;3.70;;;23.10;99.90;;;;;;5041979;28;20187;-49
2021/07/24 10:25:25;;;;;;;4.13;3.78;;;23.10;99.90;;;;;;5032849;28;20557;-46
2021/07/24 10:27:54;;;;;;;4.32;3.50;;;23.20;99.90;;;;;;5038832;28;20226;-47
2021/07/24 10:30:27;;;;;;;3.42;3.05;;;23.10;99.90;;;;;;5040392;28;20684;-45
2021/07/24 10:32:55;;;;;;;3.78;3.47;;;23.30;99.90;;;;;;5041225;28;20274;-45
2021/07/24 10:35:40;;;;;;;4.18;3.78;;;23.40;99.90;;;;;;5038360;28;20230;-46
2021/07/24 10:38:30;;;;;;;4.03;3.60;;;23.40;99.90;;;;;;5037132;28;20206;-44
2021/07/24 10:41:16;;;;;;;4.07;3.78;;;23.40;99.90;;;;;;5022165;28;20226;-43
2021/07/24 10:43:59;;;;;;;5.75;3.40;;;23.50;99.90;;;;;;5038056;28;20203;-45
2021/07/24 10:47:17;;;;;;;4.50;3.80;;;23.60;99.90;;;;;;5041699;28;20219;-61
2021/07/24 10:50:01;;;;;;;3.88;3.58;;;23.70;99.90;;;;;;5022683;28;20210;-60
2021/07/24 10:53:06;;;;;;;7.13;3.65;;;23.70;99.90;;;;;;5043244;28;20207;-59
2021/07/24 10:55:40;;;;;;;3.53;3.22;;;23.70;99.90;;;;;;5018892;28;20215;-59
2021/07/24 10:58:07;;;;;;;5.22;3.42;;;23.90;99.90;;;;;;5038903;28;20681;-60
2021/07/24 11:00:50;;;;;;;6.45;3.60;;;24.00;99.90;;;;;;5040701;28;20206;-48
2021/07/24 11:03:34;;;;;;;4.15;3.45;;;24.10;99.10;;;;;;5036610;28;20195;-45
2021/07/24 11:06:02;;;;;;;3.65;3.33;;;24.00;96.80;;;;;;5044026;28;20834;-49
2021/07/24 11:09:02;;;;;;;4.72;3.80;;;24.00;97.90;;;;;;5043131;28;20198;-47
2021/07/24 11:11:40;;;;;;;3.60;3.30;;;24.00;97.90;;;;;;5021017;28;20246;-47
2021/07/24 11:14:07;;;;;;;7.40;3.70;;;24.20;98.10;;;;;;5030497;28;20201;-47
2021/07/24 11:17:14;;;;;;;4.05;3.40;;;24.40;97.60;;;;;;5036872;28;20226;-48
2021/07/24 11:19:41;;;;;;;3.67;3.38;;;24.50;96.30;;;;;;5026310;28;20215;-45
2021/07/24 11:22:09;;;;;;;3.70;3.33;;;24.40;96.70;;;;;;5044166;28;20210;-43
2021/07/24 11:24:36;;;;;;;4.63;3.90;;;24.40;97.60;;;;;;5039276;28;20203;-47
2021/07/24 11:27:04;;;;;;;4.38;3.97;;;24.40;97.80;;;;;;5034703;28;20702;-44
2021/07/24 11:29:32;;;;;;;4.90;3.28;;;24.50;96.40;;;;;;5036514;28;20210;-45
2021/07/24 11:32:01;;;;;;;3.97;3.67;;;24.40;96.20;;;;;;5042446;28;20214;-46
2021/07/24 11:34:30;;;;;;;4.43;3.10;;;24.40;96.20;;;;;;5040544;28;20207;-43
2021/07/24 11:36:58;;;;;;;3.83;3.42;;;24.50;96.60;;;;;;5043121;28;20211;-46
2021/07/24 11:39:24;;;;;;;4.20;3.78;;;24.70;97.50;;;;;;5042757;28;20199;-49
2021/07/24 11:41:51;;;;;;;4.47;3.63;;;24.90;96.30;;;;;;5032008;28;20932;-49
2021/07/24 11:44:30;;;;;;;4.38;3.47;;;24.90;95.00;;;;;;5044838;28;20191;-44
2021/07/24 11:47:01;;;;;;;3.65;3.40;;;24.90;94.90;;;;;;5054903;28;20202;-45
2021/07/24 11:49:28;;;;;;;3.80;3.50;;;24.90;94.90;;;;;;5034960;28;20692;-45
2021/07/24 11:51:56;;;;;;;4.22;3.42;;;25.10;95.70;;;;;;5042231;28;20206;-45
2021/07/24 11:54:31;;;;;;;4.10;3.72;;;25.10;95.50;;;;;;5044425;28;20212;-43
2021/07/24 11:56:58;;;;;;;4.05;3.72;;;25.10;95.50;;;;;;5037031;28;20230;-45
2021/07/24 11:59:27;;;;;;;5.07;3.55;;;25.30;94.70;;;;;;5041911;28;20728;-43
2021/07/24 12:01:53;;;;;;;4.28;3.53;;;25.40;93.40;;;;;;5047785;28;20209;-45
2021/07/24 12:04:20;;;;;;;4.00;3.67;;;25.50;94.30;;;;;;5043095;28;20192;-45
2021/07/24 12:06:56;;;;;;;5.97;3.58;;;25.70;93.20;;;;;;5041150;28;20241;-45
2021/07/24 12:09:24;;;;;;;5.97;3.55;;;25.80;92.30;;;;;;5043757;28;20202;-47
2021/07/24 12:11:53;;;;;;;3.78;3.47;;;25.80;93.30;;;;;;5029082;28;20486;-46
2021/07/24 12:14:22;;;;;;;4.78;4.38;;;25.80;92.00;;;;;;5044480;28;20275;-45
2021/07/24 12:17:03;;;;;;;4.38;4.03;;;25.70;91.30;;;;;;5041394;28;20211;-47
2021/07/24 12:19:37;;;;;;;6.10;3.72;;;25.70;91.20;;;;;;5042047;28;20202;-43
2021/07/24 12:22:15;;;;;;;4.25;3.88;;;25.60;91.30;;;;;;5044528;28;20203;-45
2021/07/24 12:24:42;;;;;;;4.20;3.60;;;25.80;91.80;;;;;;5040610;28;20290;-47
2021/07/24 12:27:11;;;;;;;4.85;4.00;;;25.80;91.90;;;;;;5044373;28;20264;-45
2021/07/24 12:29:54;;;;;;;6.10;4.10;;;26.00;92.30;;;;;;5026268;28;20217;-43
2021/07/24 12:32:23;;;;;;;5.57;3.50;;;26.10;91.80;;;;;;5043901;28;20195;-46
2021/07/24 12:34:50;;;;;;;4.55;3.95;;;26.10;91.20;;;;;;5041394;28;20294;-47
2021/07/24 12:37:31;;;;;;;4.45;4.00;;;26.10;91.40;;;;;;5044375;28;20222;-45
2021/07/24 12:39:58;;;;;;;4.93;4.10;;;26.10;89.10;;;;;;5041535;28;20211;-44
2021/07/24 12:42:32;;;;;;;6.32;3.90;;;26.10;90.50;;;;;;5043214;28;20195;-44
2021/07/24 12:44:59;;;;;;;4.55;4.15;;;26.30;91.10;;;;;;5029039;28;20834;-46
2021/07/24 12:47:34;;;;;;;4.25;3.95;;;26.50;90.40;;;;;;5042809;28;20195;-43
2021/07/24 12:50:13;;;;;;;6.03;4.40;;;26.50;91.40;;;;;;5042964;28;20187;-45
2021/07/24 12:52:44;;;;;;;5.10;4.70;;;26.80;90.20;;;;;;5040339;28;20188;-45
2021/07/24 12:55:14;;;;;;;6.88;4.93;;;26.80;88.90;;;;;;5043738;28;20550;-44
2021/07/24 12:57:41;;;;;;;6.10;5.43;;;27.00;88.50;;;;;;5039972;28;20996;-45
2021/07/24 13:00:10;;;;;;;5.90;5.40;;;27.00;88.40;;;;;;5029647;28;20204;-46